Time;durP1;ratioP1;P1;durP2;ratioP2;P2;SDS_P1;SDS_P2;PMS_P1;PMS_P2;Temp;Humidity;BMP_temperature;BMP_pressure;BME280_temperature;BME280_humidity;BME280_pressure;Samples;Min_cycle;Max_cycle;Signal;HPM_P1;HPM_P2
2022/04/30 00:00:58;;;;;;;6.32;3.53;;;13.50;80.30;;;;;;4924126;29;20032;-79
2022/04/30 00:03:27;;;;;;;8.43;3.85;;;13.50;80.20;;;;;;4924022;29;20032;-80
2022/04/30 00:05:54;;;;;;;4.30;3.30;;;13.50;80.50;;;;;;4923748;29;20036;-79
2022/04/30 00:08:20;;;;;;;4.78;3.70;;;13.50;79.80;;;;;;4922094;29;20043;-79
2022/04/30 00:10:46;;;;;;;6.32;4.05;;;13.50;79.80;;;;;;4921750;29;20020;-79
2022/04/30 00:13:12;;;;;;;6.03;3.45;;;13.50;79.50;;;;;;4922685;29;20059;-79
2022/04/30 00:15:39;;;;;;;8.93;4.07;;;13.50;81.10;;;;;;4899508;29;20399;-80
2022/04/30 00:18:05;;;;;;;7.60;4.10;;;13.50;82.00;;;;;;4906547;29;20063;-80
2022/04/30 00:20:32;;;;;;;7.15;4.13;;;13.50;80.40;;;;;;4925912;29;20075;-80
2022/04/30 00:22:58;;;;;;;5.75;4.20;;;13.40;81.60;;;;;;4922199;29;20031;-80
2022/04/30 00:25:24;;;;;;;7.93;3.90;;;13.50;81.50;;;;;;4925281;29;20396;-83
2022/04/30 00:27:53;;;;;;;6.38;3.60;;;13.50;79.90;;;;;;4923942;29;20028;-78
2022/04/30 00:30:21;;;;;;;5.90;3.72;;;13.70;80.50;;;;;;4919455;29;20432;-79
2022/04/30 00:32:48;;;;;;;5.90;3.45;;;13.70;80.80;;;;;;4925890;29;20522;-79
2022/04/30 00:35:52;;;;;;;6.80;3.70;;;13.60;81.30;;;;;;4918409;29;20443;-79
2022/04/30 00:38:26;;;;;;;8.43;3.75;;;13.50;82.10;;;;;;4901514;29;20027;-79
2022/04/30 00:40:55;;;;;;;3.67;3.33;;;13.50;82.10;;;;;;4924132;29;20149;-81
2022/04/30 00:43:21;;;;;;;8.20;3.60;;;13.50;81.10;;;;;;4904577;29;20036;-81
2022/04/30 00:45:48;;;;;;;6.10;3.63;;;13.60;80.80;;;;;;4921055;29;20028;-81
2022/04/30 00:48:14;;;;;;;7.75;3.67;;;13.60;80.60;;;;;;4905384;29;20035;-80
2022/04/30 00:50:41;;;;;;;4.72;4.20;;;13.70;80.10;;;;;;4905379;29;20430;-81
2022/04/30 00:53:08;;;;;;;5.45;4.30;;;13.70;80.80;;;;;;4925995;29;20052;-80
2022/04/30 00:55:36;;;;;;;6.07;4.15;;;13.70;81.40;;;;;;4928790;29;20035;-80
2022/04/30 00:58:05;;;;;;;5.47;4.07;;;13.70;81.00;;;;;;4923468;29;20091;-80
2022/04/30 01:00:32;;;;;;;5.45;3.92;;;13.80;79.90;;;;;;4928032;29;20122;-80
2022/04/30 01:02:59;;;;;;;5.22;3.72;;;13.80;80.10;;;;;;4929012;29;20407;-80
2022/04/30 01:05:24;;;;;;;5.95;3.63;;;13.70;80.50;;;;;;4924129;29;20387;-80
2022/04/30 01:07:51;;;;;;;6.47;3.78;;;13.70;81.70;;;;;;4929295;29;20028;-80
2022/04/30 01:10:17;;;;;;;8.68;4.28;;;13.60;82.20;;;;;;4921174;29;20028;-80
2022/04/30 01:12:43;;;;;;;4.15;3.75;;;13.50;82.20;;;;;;4926995;29;20044;-81
2022/04/30 01:15:11;;;;;;;7.65;4.22;;;13.40;82.00;;;;;;4923800;29;20059;-81
2022/04/30 01:17:39;;;;;;;4.80;3.67;;;13.30;82.60;;;;;;4925841;29;20020;-80
2022/04/30 01:20:06;;;;;;;7.30;3.95;;;13.30;80.90;;;;;;4921907;29;20380;-80
2022/04/30 01:22:54;;;;;;;4.07;3.67;;;13.30;82.00;;;;;;4925014;29;20051;-80
2022/04/30 01:25:35;;;;;;;4.03;3.38;;;13.30;81.30;;;;;;4923345;29;20047;-78
2022/04/30 01:28:05;;;;;;;4.15;3.70;;;13.30;81.60;;;;;;4926092;29;20047;-78
2022/04/30 01:30:31;;;;;;;5.30;4.22;;;13.20;82.90;;;;;;4923795;29;20132;-78
2022/04/30 01:38:27;;;;;;;5.57;3.78;;;13.10;83.00;;;;;;4924366;29;20522;-80
2022/04/30 01:40:53;;;;;;;6.90;4.00;;;13.20;81.80;;;;;;4928560;29;20027;-80
2022/04/30 01:43:20;;;;;;;4.82;4.13;;;13.20;83.30;;;;;;4924144;29;20060;-80
2022/04/30 01:45:46;;;;;;;6.43;3.65;;;13.10;84.00;;;;;;4924309;29;20023;-80
2022/04/30 01:48:14;;;;;;;7.60;3.88;;;13.00;84.80;;;;;;4924748;29;20034;-80
2022/04/30 01:50:43;;;;;;;10.35;4.03;;;12.90;84.90;;;;;;4925562;29;20122;-81
2022/04/30 01:53:12;;;;;;;5.35;4.00;;;12.70;85.80;;;;;;4926545;29;20035;-80
2022/04/30 01:55:38;;;;;;;9.20;4.35;;;12.60;86.10;;;;;;4930438;29;20398;-80
2022/04/30 01:58:04;;;;;;;5.93;3.85;;;12.60;86.70;;;;;;4927517;29;20024;-80
2022/04/30 02:00:31;;;;;;;5.55;4.40;;;12.60;86.50;;;;;;4905957;29;20168;-80
2022/04/30 02:03:06;;;;;;;7.80;3.85;;;12.40;86.30;;;;;;4927795;29;20032;-79
2022/04/30 02:05:32;;;;;;;6.32;3.92;;;12.50;87.20;;;;;;4925128;29;20031;-80
2022/04/30 02:08:03;;;;;;;8.48;4.20;;;12.40;87.40;;;;;;4925590;29;20111;-80
2022/04/30 02:10:29;;;;;;;5.78;3.80;;;12.40;87.70;;;;;;4921910;29;20395;-81
2022/04/30 02:12:56;;;;;;;8.02;4.43;;;12.30;88.10;;;;;;4925806;29;20072;-81
2022/04/30 02:15:23;;;;;;;5.00;3.95;;;12.20;88.30;;;;;;4904411;29;20059;-81
2022/04/30 02:17:50;;;;;;;5.60;4.45;;;12.20;87.90;;;;;;4924489;29;20080;-80
2022/04/30 02:20:33;;;;;;;5.45;4.05;;;12.20;88.10;;;;;;4929139;29;20108;-80
2022/04/30 02:23:04;;;;;;;5.25;3.80;;;12.20;88.20;;;;;;4923797;29;20056;-81
2022/04/30 02:25:31;;;;;;;6.13;4.10;;;12.30;87.10;;;;;;4924921;29;20027;-80
2022/04/30 02:27:59;;;;;;;6.38;3.97;;;12.40;87.30;;;;;;4925095;29;20024;-80
2022/04/30 02:30:29;;;;;;;7.35;4.45;;;12.50;88.00;;;;;;4918557;29;20024;-80
2022/04/30 02:33:01;;;;;;;6.57;4.20;;;12.50;86.40;;;;;;4910060;29;20035;-80
2022/04/30 02:35:29;;;;;;;11.00;4.18;;;12.50;87.30;;;;;;4922042;29;20024;-80
2022/04/30 02:37:57;;;;;;;5.85;4.00;;;12.60;87.10;;;;;;4927206;29;20028;-80
2022/04/30 02:40:27;;;;;;;6.35;4.07;;;12.60;87.40;;;;;;4902685;29;20069;-80
2022/04/30 02:42:53;;;;;;;8.30;4.22;;;12.50;87.30;;;;;;4923778;29;20046;-80
2022/04/30 02:45:21;;;;;;;8.45;4.90;;;12.50;88.20;;;;;;4920819;29;20040;-80
2022/04/30 02:47:53;;;;;;;11.63;4.68;;;12.40;88.10;;;;;;4924728;29;20476;-80
2022/04/30 02:50:22;;;;;;;5.15;4.20;;;12.40;88.10;;;;;;4906680;29;20035;-80
2022/04/30 02:52:47;;;;;;;6.65;3.70;;;12.40;88.10;;;;;;4923867;29;20035;-80
2022/04/30 02:55:14;;;;;;;6.63;4.07;;;12.50;85.60;;;;;;4923893;29;20027;-80
2022/04/30 03:00:39;;;;;;;9.77;4.13;;;12.80;84.60;;;;;;4926483;29;20078;-80
2022/04/30 03:03:13;;;;;;;5.70;4.53;;;12.90;84.90;;;;;;4929794;29;20052;-80
2022/04/30 03:05:41;;;;;;;10.63;3.90;;;12.90;84.80;;;;;;4909219;29;20040;-80
2022/04/30 03:08:12;;;;;;;6.80;4.30;;;12.90;84.30;;;;;;4925285;29;20024;-80
2022/04/30 03:10:39;;;;;;;5.57;4.27;;;13.00;84.20;;;;;;4924621;29;20044;-80
2022/04/30 03:13:06;;;;;;;6.00;4.43;;;13.00;84.60;;;;;;4927951;29;20126;-80
2022/04/30 03:15:38;;;;;;;8.18;4.47;;;13.00;84.50;;;;;;4925278;29;20047;-80
2022/04/30 03:23:33;;;;;;;4.30;3.70;;;12.70;86.70;;;;;;4923689;29;20024;-80
2022/04/30 03:25:59;;;;;;;5.50;4.07;;;12.60;85.40;;;;;;4926523;29;20027;-80
2022/04/30 03:28:25;;;;;;;9.77;4.90;;;12.60;87.30;;;;;;4925042;29;20495;-80
2022/04/30 03:30:51;;;;;;;8.93;4.22;;;12.50;86.90;;;;;;4907681;29;20031;-80
2022/04/30 03:33:17;;;;;;;6.78;3.75;;;12.40;87.20;;;;;;4908718;29;20036;-80
2022/04/30 03:35:43;;;;;;;12.38;4.32;;;12.40;87.70;;;;;;4923333;29;20447;-80
2022/04/30 03:38:09;;;;;;;7.22;4.07;;;12.30;87.70;;;;;;4923455;29;20027;-80
2022/04/30 03:40:38;;;;;;;10.02;4.13;;;12.40;86.90;;;;;;4923055;29;20095;-80
2022/04/30 03:43:05;;;;;;;7.20;4.35;;;12.40;87.00;;;;;;4923799;29;20079;-80
2022/04/30 03:45:31;;;;;;;4.57;3.88;;;12.40;88.30;;;;;;4919151;29;20019;-80
2022/04/30 03:48:00;;;;;;;3.83;3.47;;;12.30;88.20;;;;;;4922183;29;20494;-80
2022/04/30 03:50:26;;;;;;;5.43;4.30;;;12.30;88.50;;;;;;4925868;29;20032;-80
2022/04/30 03:52:52;;;;;;;8.18;4.15;;;12.20;89.20;;;;;;4907753;29;20087;-80
2022/04/30 03:55:18;;;;;;;5.63;4.30;;;12.10;89.70;;;;;;4922615;29;20024;-80
2022/04/30 03:57:44;;;;;;;9.88;4.60;;;12.10;89.50;;;;;;4905802;29;20036;-80
2022/04/30 04:00:11;;;;;;;6.70;4.20;;;12.10;90.00;;;;;;4923769;29;20082;-80
2022/04/30 04:02:39;;;;;;;6.03;4.32;;;12.10;90.00;;;;;;4925623;29;20082;-80
2022/04/30 04:05:08;;;;;;;5.28;4.20;;;12.10;89.10;;;;;;4905106;29;20032;-80
2022/04/30 04:07:34;;;;;;;5.10;3.95;;;12.20;89.20;;;;;;4924396;29;20020;-80
2022/04/30 04:10:02;;;;;;;7.20;4.18;;;12.20;88.90;;;;;;4921255;29;20031;-80
2022/04/30 04:12:31;;;;;;;11.02;4.43;;;12.30;89.40;;;;;;4923649;29;20051;-80
2022/04/30 04:17:41;;;;;;;4.97;3.72;;;12.20;89.30;;;;;;4923782;29;20554;-80
2022/04/30 04:20:08;;;;;;;6.30;4.07;;;12.30;89.30;;;;;;4908917;29;20040;-80
2022/04/30 04:22:34;;;;;;;6.15;3.92;;;12.20;89.50;;;;;;4905298;29;20067;-80
2022/04/30 04:27:44;;;;;;;10.65;4.53;;;12.20;89.90;;;;;;4920248;29;20079;-80
2022/04/30 04:30:10;;;;;;;7.82;3.95;;;12.30;89.30;;;;;;4904006;29;20127;-80
2022/04/30 04:32:36;;;;;;;5.88;4.05;;;12.40;89.30;;;;;;4923763;29;20106;-80
2022/04/30 04:35:02;;;;;;;5.85;4.18;;;12.50;89.40;;;;;;4925461;29;20024;-80
2022/04/30 04:37:27;;;;;;;5.20;4.15;;;12.60;88.40;;;;;;4921586;29;20048;-80
2022/04/30 04:39:55;;;;;;;7.07;4.15;;;12.70;88.40;;;;;;4920962;29;20028;-81
2022/04/30 04:42:21;;;;;;;5.60;4.22;;;12.70;87.40;;;;;;4922288;29;20115;-80
2022/04/30 04:44:47;;;;;;;4.22;3.80;;;12.80;87.70;;;;;;4920283;29;20456;-81
2022/04/30 04:47:16;;;;;;;12.27;4.40;;;12.90;88.10;;;;;;4922402;29;20110;-80
2022/04/30 04:49:42;;;;;;;6.20;3.60;;;13.00;87.00;;;;;;4920460;29;20024;-80
2022/04/30 04:52:11;;;;;;;6.40;4.13;;;13.10;87.10;;;;;;4904161;29;20365;-80
2022/04/30 04:54:37;;;;;;;6.47;3.75;;;13.10;87.80;;;;;;4903908;29;20024;-80
2022/04/30 04:57:03;;;;;;;10.23;4.22;;;13.10;87.70;;;;;;4923352;29;20091;-80
2022/04/30 04:59:29;;;;;;;9.18;4.28;;;13.20;87.70;;;;;;4920153;29;20031;-80
2022/04/30 05:01:54;;;;;;;8.20;4.45;;;13.20;88.50;;;;;;4925570;29;20047;-80
2022/04/30 05:04:21;;;;;;;6.57;4.05;;;13.20;87.30;;;;;;4926743;29;20086;-80
2022/04/30 05:06:48;;;;;;;6.60;4.00;;;13.30;87.10;;;;;;4922789;29;20106;-80
2022/04/30 05:09:14;;;;;;;8.55;4.32;;;13.30;87.40;;;;;;4901525;29;20032;-80
2022/04/30 05:11:40;;;;;;;8.23;4.47;;;13.30;87.30;;;;;;4924280;29;20110;-80
2022/04/30 05:14:06;;;;;;;5.63;3.83;;;13.40;87.70;;;;;;4918251;29;20139;-80
2022/04/30 05:16:32;;;;;;;7.53;4.22;;;13.40;87.90;;;;;;4920879;29;20492;-80
2022/04/30 05:18:58;;;;;;;7.05;3.67;;;13.40;88.50;;;;;;4928048;29;20038;-78
2022/04/30 05:21:25;;;;;;;6.72;4.10;;;13.50;88.90;;;;;;4922140;29;20040;-78
2022/04/30 05:23:51;;;;;;;6.53;4.10;;;13.40;88.90;;;;;;4925243;29;20016;-78
2022/04/30 05:26:16;;;;;;;6.60;3.58;;;13.40;90.30;;;;;;4922176;29;20047;-79
2022/04/30 05:28:42;;;;;;;9.45;3.85;;;13.50;90.20;;;;;;4925869;29;20387;-79
2022/04/30 05:31:08;;;;;;;5.10;4.00;;;13.50;90.40;;;;;;4926697;29;20028;-78
2022/04/30 05:33:35;;;;;;;6.97;4.20;;;13.60;90.00;;;;;;4922061;29;20119;-78
2022/04/30 05:36:04;;;;;;;6.35;3.97;;;13.70;88.60;;;;;;4921015;29;20055;-78
2022/04/30 05:38:29;;;;;;;8.57;4.50;;;13.80;88.20;;;;;;4924498;29;20031;-78
2022/04/30 05:40:55;;;;;;;5.70;4.18;;;14.00;85.90;;;;;;4921513;29;21229;-79
2022/04/30 05:43:21;;;;;;;5.07;4.25;;;14.10;85.10;;;;;;4920894;29;20032;-79
2022/04/30 05:45:47;;;;;;;9.52;5.32;;;14.20;87.20;;;;;;4918782;29;20032;-78
2022/04/30 05:48:12;;;;;;;8.77;5.47;;;14.30;87.90;;;;;;4926487;29;20043;-78
2022/04/30 05:50:38;;;;;;;4.53;4.07;;;14.30;88.40;;;;;;4911765;29;20032;-78
2022/04/30 05:53:05;;;;;;;7.82;4.20;;;14.40;88.20;;;;;;4923615;29;20070;-78
2022/04/30 05:55:31;;;;;;;6.30;4.05;;;14.50;88.40;;;;;;4923205;29;20035;-80
2022/04/30 05:57:57;;;;;;;4.78;3.70;;;14.60;88.90;;;;;;4928175;29;20036;-80
2022/04/30 06:00:23;;;;;;;8.60;4.07;;;14.70;88.40;;;;;;4907010;29;20020;-79
2022/04/30 06:02:49;;;;;;;6.97;4.10;;;14.80;88.00;;;;;;4927015;29;20127;-79
2022/04/30 06:05:18;;;;;;;5.35;4.47;;;14.80;87.40;;;;;;4908125;29;20031;-79
2022/04/30 06:07:44;;;;;;;6.20;4.10;;;15.10;86.40;;;;;;4924960;29;20032;-78
2022/04/30 06:10:10;;;;;;;5.20;4.13;;;15.30;83.80;;;;;;4907580;29;20030;-79
2022/04/30 06:12:35;;;;;;;9.05;4.65;;;15.30;84.20;;;;;;4907505;29;20047;-79
2022/04/30 06:15:02;;;;;;;5.35;4.10;;;15.40;83.60;;;;;;4922973;29;20055;-79
2022/04/30 06:17:27;;;;;;;7.43;3.97;;;15.40;84.80;;;;;;4925287;29;20078;-79
2022/04/30 06:19:53;;;;;;;6.18;3.88;;;15.50;85.70;;;;;;4907223;29;20064;-79
2022/04/30 06:22:19;;;;;;;6.45;3.67;;;15.60;86.00;;;;;;4924935;29;20036;-78
2022/04/30 06:24:45;;;;;;;8.38;4.10;;;15.70;85.30;;;;;;4922819;29;20040;-78
2022/04/30 06:27:11;;;;;;;7.47;4.15;;;15.70;86.30;;;;;;4907120;29;20039;-78
2022/04/30 06:29:38;;;;;;;4.82;3.65;;;15.80;85.10;;;;;;4926113;29;20035;-78
2022/04/30 06:32:05;;;;;;;6.50;4.35;;;16.00;83.50;;;;;;4926999;29;20051;-78
2022/04/30 06:34:30;;;;;;;11.57;4.53;;;16.10;83.70;;;;;;4920668;29;20503;-78
2022/04/30 06:36:56;;;;;;;8.30;3.85;;;16.20;84.00;;;;;;4924506;29;20031;-78
2022/04/30 06:39:22;;;;;;;7.45;3.58;;;16.40;84.60;;;;;;4923176;29;20546;-78
2022/04/30 06:41:48;;;;;;;7.38;4.03;;;16.50;86.20;;;;;;4927825;29;20047;-78
2022/04/30 06:44:13;;;;;;;6.28;4.00;;;16.50;85.10;;;;;;4921885;29;20027;-78
2022/04/30 06:46:39;;;;;;;5.60;4.03;;;16.70;79.40;;;;;;4926429;29;20476;-78
2022/04/30 06:49:05;;;;;;;4.55;3.55;;;16.80;82.30;;;;;;4930836;29;20110;-77
2022/04/30 06:51:30;;;;;;;5.50;4.00;;;16.80;83.00;;;;;;4907861;29;20039;-78
2022/04/30 06:59:28;;;;;;;7.88;4.35;;;16.90;79.30;;;;;;4920909;29;20498;-78
2022/04/30 07:02:00;;;;;;;6.80;4.47;;;16.90;82.20;;;;;;4925872;29;20038;-77
2022/04/30 07:04:28;;;;;;;6.75;4.47;;;16.90;83.40;;;;;;4918456;29;20035;-78
2022/04/30 07:06:54;;;;;;;6.18;3.67;;;16.90;83.50;;;;;;4909621;29;20031;-78
2022/04/30 07:09:20;;;;;;;4.68;3.78;;;17.00;81.30;;;;;;4928433;29;20651;-78
2022/04/30 07:11:46;;;;;;;6.65;3.80;;;17.10;82.00;;;;;;4911184;29;20507;-78
2022/04/30 07:14:11;;;;;;;6.35;4.03;;;17.10;79.80;;;;;;4920124;29;20044;-79
2022/04/30 07:16:38;;;;;;;7.00;3.63;;;17.10;78.90;;;;;;4921555;29;20040;-78
2022/04/30 07:19:04;;;;;;;9.15;4.18;;;17.20;77.50;;;;;;4927846;29;20051;-78
2022/04/30 07:21:33;;;;;;;8.85;4.55;;;17.40;77.60;;;;;;4924166;29;20052;-78
2022/04/30 07:23:59;;;;;;;7.60;4.32;;;17.60;77.90;;;;;;4904922;29;20043;-78
2022/04/30 07:26:25;;;;;;;14.57;4.45;;;17.80;75.60;;;;;;4922796;29;20550;-83
2022/04/30 07:28:52;;;;;;;7.78;4.00;;;18.00;73.30;;;;;;4920016;29;20036;-83
2022/04/30 07:31:18;;;;;;;8.85;4.38;;;18.00;74.60;;;;;;4925443;29;20027;-85
2022/04/30 07:33:44;;;;;;;7.47;4.60;;;18.10;74.00;;;;;;4917773;29;20033;-86
2022/04/30 07:36:10;;;;;;;14.23;4.55;;;18.20;75.10;;;;;;4925575;29;20031;-82
2022/04/30 07:38:36;;;;;;;11.45;5.90;;;18.20;73.10;;;;;;4924284;29;20255;-86
2022/04/30 07:41:02;;;;;;;8.63;3.83;;;18.30;75.00;;;;;;4923949;29;20107;-85
2022/04/30 07:43:28;;;;;;;9.20;4.00;;;18.40;75.50;;;;;;4909129;29;20035;-91
2022/04/30 07:45:54;;;;;;;6.32;4.28;;;18.50;73.50;;;;;;4911261;29;20039;-77
2022/04/30 07:48:19;;;;;;;7.28;4.13;;;18.50;74.30;;;;;;4922219;29;20119;-80
2022/04/30 07:50:45;;;;;;;10.98;4.15;;;18.60;73.10;;;;;;4904612;29;20032;-79
2022/04/30 07:53:15;;;;;;;6.32;4.25;;;18.70;71.10;;;;;;4911906;29;20111;-88
2022/04/30 07:55:43;;;;;;;7.82;4.05;;;18.80;74.70;;;;;;4907192;29;20182;-83
2022/04/30 07:58:09;;;;;;;8.52;3.85;;;18.90;73.70;;;;;;4922779;29;20024;-80
2022/04/30 08:00:35;;;;;;;7.93;4.38;;;19.00;70.60;;;;;;4928116;29;20475;-81
2022/04/30 08:03:01;;;;;;;7.38;3.83;;;19.10;70.80;;;;;;4912733;29;20480;-80
2022/04/30 08:05:28;;;;;;;8.35;3.97;;;19.20;71.00;;;;;;4927519;29;20048;-81
2022/04/30 08:07:54;;;;;;;4.10;3.30;;;19.30;70.70;;;;;;4922904;29;20494;-80
2022/04/30 08:10:21;;;;;;;7.95;4.22;;;19.30;68.30;;;;;;4931065;29;20028;-79
2022/04/30 08:12:50;;;;;;;9.20;3.40;;;19.40;69.40;;;;;;4905201;29;20044;-80
2022/04/30 08:15:16;;;;;;;6.45;3.17;;;19.30;70.30;;;;;;4922495;29;20036;-87
2022/04/30 08:17:41;;;;;;;4.30;3.20;;;19.40;67.70;;;;;;4922844;29;20024;-80
2022/04/30 08:20:08;;;;;;;3.80;3.25;;;19.50;69.20;;;;;;4920651;29;20440;-83
2022/04/30 08:22:34;;;;;;;4.97;2.90;;;19.50;67.20;;;;;;4906623;29;20040;-79
2022/04/30 08:25:03;;;;;;;4.72;3.40;;;19.60;70.00;;;;;;4920840;29;20028;-80
2022/04/30 08:27:30;;;;;;;8.02;3.42;;;19.60;68.80;;;;;;4925118;29;20128;-79
2022/04/30 08:29:55;;;;;;;3.92;2.55;;;19.70;66.30;;;;;;4927502;29;20028;-81
2022/04/30 08:32:25;;;;;;;4.32;3.42;;;19.70;68.80;;;;;;4924295;29;20030;-82
2022/04/30 08:34:51;;;;;;;5.38;3.22;;;19.70;67.40;;;;;;4927036;29;20082;-80
2022/04/30 08:37:17;;;;;;;5.82;3.20;;;19.70;68.30;;;;;;4922443;29;20031;-80
2022/04/30 08:39:44;;;;;;;5.88;3.78;;;19.70;66.90;;;;;;4920637;29;20051;-81
2022/04/30 08:42:10;;;;;;;5.10;3.30;;;19.80;67.50;;;;;;4904234;29;20039;-81
2022/04/30 08:44:39;;;;;;;13.63;3.65;;;19.80;69.10;;;;;;4921373;29;20391;-83
2022/04/30 08:47:07;;;;;;;4.03;2.92;;;19.80;67.50;;;;;;4920529;29;20495;-81
2022/04/30 08:49:33;;;;;;;3.63;3.13;;;19.80;68.90;;;;;;4922298;29;20019;-82
2022/04/30 08:51:59;;;;;;;4.47;2.72;;;19.80;68.60;;;;;;4924040;29;20032;-80
2022/04/30 08:54:25;;;;;;;3.90;2.92;;;19.80;66.30;;;;;;4926870;29;20035;-81
2022/04/30 08:57:00;;;;;;;3.90;2.80;;;19.90;69.90;;;;;;4904300;29;20050;-81
2022/04/30 08:59:27;;;;;;;4.63;3.08;;;19.90;68.00;;;;;;4916964;29;20020;-81
2022/04/30 09:01:58;;;;;;;6.10;3.05;;;20.10;69.50;;;;;;4924462;29;20099;-81
2022/04/30 09:04:25;;;;;;;4.15;3.10;;;20.10;71.00;;;;;;4902426;29;20028;-81
2022/04/30 09:06:53;;;;;;;10.50;3.42;;;20.10;67.40;;;;;;4906968;29;20499;-81
2022/04/30 09:09:29;;;;;;;4.05;3.13;;;20.20;70.20;;;;;;4929710;29;20684;-83
2022/04/30 09:12:06;;;;;;;3.53;3.00;;;20.20;69.40;;;;;;4924817;29;20058;-81
2022/04/30 09:14:32;;;;;;;3.95;2.97;;;20.20;69.50;;;;;;4921232;29;20047;-81
2022/04/30 09:17:02;;;;;;;4.72;3.30;;;20.30;68.20;;;;;;4919569;29;20036;-81
2022/04/30 09:19:28;;;;;;;3.65;2.80;;;20.40;68.80;;;;;;4928653;29;20088;-81
2022/04/30 09:21:53;;;;;;;4.07;2.78;;;20.50;63.80;;;;;;4927212;29;20039;-79
2022/04/30 09:24:19;;;;;;;5.47;3.20;;;20.50;65.00;;;;;;4925298;29;20043;-81
2022/04/30 09:26:45;;;;;;;3.55;2.63;;;20.60;65.80;;;;;;4909118;29;20032;-82
2022/04/30 09:29:23;;;;;;;3.00;2.60;;;20.70;65.70;;;;;;4924403;29;20385;-81
2022/04/30 09:31:53;;;;;;;3.28;2.83;;;20.80;67.70;;;;;;4930671;29;20032;-80
2022/04/30 09:39:50;;;;;;;3.08;2.63;;;20.90;63.50;;;;;;4922003;29;20103;-80
2022/04/30 09:42:16;;;;;;;12.25;3.55;;;21.00;64.60;;;;;;4926048;29;20028;-80
2022/04/30 09:44:43;;;;;;;5.15;2.88;;;21.10;67.10;;;;;;4910681;29;20020;-80
2022/04/30 09:47:09;;;;;;;4.00;2.97;;;21.10;63.20;;;;;;4922264;29;20316;-80
2022/04/30 09:55:05;;;;;;;3.75;2.78;;;21.10;65.20;;;;;;4929672;29;20039;-80
2022/04/30 09:57:34;;;;;;;3.85;2.97;;;21.10;67.80;;;;;;4910214;29;20591;-80
2022/04/30 10:00:00;;;;;;;9.63;3.47;;;21.20;66.20;;;;;;4924525;29;20055;-80
2022/04/30 10:02:31;;;;;;;5.13;3.08;;;20.90;68.80;;;;;;4928222;29;20043;-85
2022/04/30 10:05:01;;;;;;;3.60;2.70;;;20.80;67.50;;;;;;4924344;29;20095;-85
2022/04/30 10:07:29;;;;;;;6.07;3.00;;;20.50;65.00;;;;;;4926837;29;20088;-79
2022/04/30 10:10:21;;;;;;;3.33;2.95;;;20.60;65.90;;;;;;4928735;29;20022;-82
2022/04/30 10:12:58;;;;;;;3.97;3.00;;;20.60;64.30;;;;;;4926423;29;20279;-80
2022/04/30 10:15:25;;;;;;;3.65;2.85;;;20.60;67.20;;;;;;4922413;29;20508;-80
2022/04/30 10:17:54;;;;;;;5.65;3.13;;;20.60;65.80;;;;;;4924846;29;20039;-81
2022/04/30 10:20:37;;;;;;;2.58;2.38;;;20.70;66.40;;;;;;4924694;29;20035;-79
2022/04/30 10:23:05;;;;;;;5.72;2.92;;;20.70;65.70;;;;;;4909507;29;20051;-80
2022/04/30 10:25:32;;;;;;;5.32;3.08;;;20.60;64.90;;;;;;4901975;29;20487;-87
2022/04/30 10:27:58;;;;;;;12.05;3.28;;;20.60;64.00;;;;;;4926126;29;20027;-82
2022/04/30 10:30:27;;;;;;;5.55;2.70;;;20.50;63.20;;;;;;4929134;29;20031;-79
2022/04/30 10:33:02;;;;;;;10.52;3.05;;;20.60;62.60;;;;;;4927315;29;20024;-76
2022/04/30 10:35:33;;;;;;;5.13;3.13;;;20.70;62.50;;;;;;4924088;29;20036;-76
2022/04/30 10:38:10;;;;;;;5.43;4.20;;;20.60;62.80;;;;;;4927938;28;20407;-78
2022/04/30 10:40:46;;;;;;;9.40;3.97;;;20.60;62.20;;;;;;4922352;29;20115;-77
2022/04/30 10:43:16;;;;;;;5.70;3.90;;;20.70;62.20;;;;;;4924431;29;20048;-79
2022/04/30 10:45:41;;;;;;;6.75;3.13;;;20.70;61.90;;;;;;4918485;29;20050;-79
2022/04/30 10:48:07;;;;;;;5.55;3.80;;;20.60;63.20;;;;;;4924037;29;20118;-78
2022/04/30 10:50:33;;;;;;;9.90;5.75;;;20.90;64.30;;;;;;4924458;29;20038;-76
2022/04/30 10:53:03;;;;;;;6.13;3.90;;;21.00;63.50;;;;;;4926130;29;20027;-80
2022/04/30 10:55:30;;;;;;;8.13;3.20;;;21.00;65.30;;;;;;4927193;29;20546;-79
2022/04/30 10:57:56;;;;;;;3.65;2.55;;;21.10;60.80;;;;;;4922621;29;20032;-82
2022/04/30 11:00:22;;;;;;;3.55;2.90;;;20.90;63.10;;;;;;4924543;29;20115;-80
2022/04/30 11:02:49;;;;;;;4.03;3.13;;;21.00;60.70;;;;;;4928079;29;20043;-81
2022/04/30 11:05:22;;;;;;;11.98;4.60;;;20.90;61.60;;;;;;4906748;29;20024;-79
2022/04/30 11:07:51;;;;;;;3.85;2.70;;;21.00;64.60;;;;;;4924135;29;20034;-79
2022/04/30 11:10:19;;;;;;;2.70;2.50;;;21.00;61.90;;;;;;4924284;29;20034;-80
2022/04/30 11:12:45;;;;;;;5.38;2.55;;;21.00;61.80;;;;;;4929443;29;20050;-78
2022/04/30 11:15:14;;;;;;;8.60;2.42;;;21.00;60.40;;;;;;4926025;29;20032;-79
2022/04/30 11:17:45;;;;;;;4.97;2.67;;;21.00;60.70;;;;;;4923529;29;20028;-78
2022/04/30 11:20:19;;;;;;;4.47;2.83;;;21.10;62.40;;;;;;4925652;29;20589;-85
2022/04/30 11:22:54;;;;;;;6.88;2.88;;;21.20;62.50;;;;;;4925014;29;20043;-80
2022/04/30 11:25:20;;;;;;;3.40;2.70;;;21.20;62.60;;;;;;4925493;29;20379;-86
2022/04/30 11:27:46;;;;;;;6.38;2.70;;;21.20;65.60;;;;;;4921731;29;20036;-80
2022/04/30 11:30:12;;;;;;;4.57;2.63;;;21.30;65.00;;;;;;4921071;29;20047;-85
2022/04/30 11:32:38;;;;;;;9.98;3.80;;;21.30;61.70;;;;;;4929164;29;20028;-86
2022/04/30 11:35:04;;;;;;;5.30;2.92;;;21.10;62.70;;;;;;4909975;29;20032;-83
2022/04/30 11:37:40;;;;;;;5.22;2.83;;;21.20;61.30;;;;;;4924679;29;20028;-80
2022/04/30 11:40:07;;;;;;;3.30;2.70;;;21.20;62.40;;;;;;4920733;29;20506;-77
2022/04/30 11:42:33;;;;;;;4.65;2.67;;;21.00;62.90;;;;;;4924188;29;20032;-79
2022/04/30 11:44:58;;;;;;;10.52;2.92;;;21.20;61.70;;;;;;4927358;29;20072;-79
2022/04/30 11:47:24;;;;;;;4.18;2.45;;;21.50;61.60;;;;;;4925496;29;20035;-81
2022/04/30 11:50:05;;;;;;;2.83;2.50;;;21.40;63.30;;;;;;4932542;29;20032;-80
2022/04/30 11:52:31;;;;;;;4.05;2.63;;;21.50;62.40;;;;;;4923213;29;20175;-80
2022/04/30 11:54:59;;;;;;;2.63;1.92;;;21.50;63.50;;;;;;4924198;29;20103;-79
2022/04/30 11:57:25;;;;;;;2.78;2.10;;;21.70;59.40;;;;;;4925053;29;20035;-80
2022/04/30 11:59:51;;;;;;;3.08;2.33;;;21.80;60.00;;;;;;4920312;29;20021;-80
2022/04/30 12:02:17;;;;;;;2.88;2.58;;;21.90;59.70;;;;;;4921890;29;20046;-80
2022/04/30 12:04:43;;;;;;;10.95;2.78;;;22.90;58.70;;;;;;4918934;29;20032;-85
2022/04/30 12:07:12;;;;;;;8.65;3.67;;;25.40;57.60;;;;;;4925358;29;20035;-86
2022/04/30 12:09:43;;;;;;;44.53;33.42;;;26.10;57.20;;;;;;4919798;29;20075;-80
2022/04/30 12:12:16;;;;;;;7.55;5.47;;;27.00;53.80;;;;;;4904012;29;20032;-79
2022/04/30 12:14:50;;;;;;;17.75;14.13;;;27.50;53.70;;;;;;4926800;29;20070;-80
2022/04/30 12:17:16;;;;;;;3.65;2.65;;;28.60;51.70;;;;;;4920071;29;20028;-82
2022/04/30 12:25:20;;;;;;;5.38;2.35;;;29.20;50.50;;;;;;4926167;29;20306;-80
2022/04/30 12:27:53;;;;;;;3.70;2.22;;;29.80;49.00;;;;;;4924591;29;20388;-78
2022/04/30 12:30:21;;;;;;;3.97;2.17;;;28.80;49.30;;;;;;4925775;29;20044;-79
2022/04/30 12:33:00;;;;;;;9.50;2.47;;;28.80;49.40;;;;;;4905341;29;20035;-79
2022/04/30 12:35:40;;;;;;;2.42;2.13;;;30.00;47.40;;;;;;4922776;29;20486;-78
2022/04/30 12:38:14;;;;;;;2.97;1.98;;;31.70;45.50;;;;;;4922818;29;20029;-78
2022/04/30 12:40:43;;;;;;;4.07;2.13;;;31.60;45.70;;;;;;4924388;29;20064;-79
2022/04/30 12:43:09;;;;;;;4.00;2.13;;;31.40;46.90;;;;;;4923270;29;20126;-79
2022/04/30 12:45:37;;;;;;;2.08;1.88;;;32.40;45.70;;;;;;4920749;29;20035;-79
2022/04/30 12:48:04;;;;;;;5.43;2.28;;;32.80;44.80;;;;;;4906383;29;20212;-79
2022/04/30 12:50:32;;;;;;;6.15;2.58;;;33.60;44.90;;;;;;4925660;29;20028;-79
2022/04/30 12:52:59;;;;;;;6.28;2.65;;;33.90;45.30;;;;;;4923568;29;20116;-77
2022/04/30 12:55:25;;;;;;;3.92;2.30;;;33.40;44.90;;;;;;4928765;29;20472;-77
2022/04/30 12:57:51;;;;;;;4.00;2.08;;;33.10;46.10;;;;;;4930207;29;20024;-76
2022/04/30 13:00:17;;;;;;;6.22;2.42;;;33.50;46.10;;;;;;4931664;29;20399;-76
2022/04/30 13:02:44;;;;;;;3.72;2.00;;;34.10;48.30;;;;;;4930244;29;20044;-77
2022/04/30 13:05:11;;;;;;;4.05;1.90;;;33.90;51.60;;;;;;4935441;29;20027;-76
2022/04/30 13:07:39;;;;;;;10.68;2.58;;;32.90;51.20;;;;;;4928931;29;20039;-78
2022/04/30 13:15:34;;;;;;;7.15;2.60;;;30.20;55.10;;;;;;4932224;29;20038;-79
2022/04/30 13:18:01;;;;;;;6.65;2.65;;;30.50;56.80;;;;;;4911683;29;20119;-79
2022/04/30 13:20:28;;;;;;;3.45;2.50;;;29.60;58.90;;;;;;4911955;29;20074;-79
2022/04/30 13:22:56;;;;;;;5.63;2.60;;;29.10;61.30;;;;;;4929737;29;20036;-80
2022/04/30 13:25:26;;;;;;;9.90;2.85;;;27.90;62.40;;;;;;4928591;29;20107;-79
2022/04/30 13:27:52;;;;;;;2.88;2.50;;;26.60;58.90;;;;;;4929610;29;20027;-79
2022/04/30 13:30:18;;;;;;;11.38;3.00;;;24.90;59.20;;;;;;4927858;29;20074;-79
2022/04/30 13:32:48;;;;;;;4.57;3.35;;;25.50;57.70;;;;;;4931800;29;20023;-80
2022/04/30 13:35:15;;;;;;;6.78;2.47;;;27.70;55.50;;;;;;4928002;29;20031;-79